Louisville, Kentucky
Current Conditions -  °F | °C
As of 11:56 AM on Tuesday 21 Oct 2014 (Local Time) from KSDF Reporting Station
Broken Clouds Broken Clouds  
Wind Chill: 58°   Ceiling: 5500
Heat Index: 58°   Visibility: 10mi
Dew Point: 46°   Wind: 8mph
Humidity: 65%   Direction: 30°NNE
Pressure: 30.08"   Gusts: NA
Location:  38.25°N, 85.77°W
Report Text: KSDF 211556Z 03007KT 010V100 10SM FEW030 BKN055 14/08 A3008 RMK AO2 SLP184 T01440078
Loading
Personal Weather Stations






























Interactive Weather Map
Tropical Storm Tracking
New forecast layout! Learn more

10-Day Weather Forecast

Advertisements
Track Severe Weather on mobile